Time;durP1;ratioP1;P1;durP2;ratioP2;P2;SDS_P1;SDS_P2;PMS_P1;PMS_P2;Temp;Humidity;BMP_temperature;BMP_pressure;BME280_temperature;BME280_humidity;BME280_pressure;Samples;Min_cycle;Max_cycle;Signal;HPM_P1;HPM_P2
2024/04/08 00:01:54;;;;;;;4.85;2.50;;;14.90;35.80;;;;;;4968567;28;20231;-90
2024/04/08 00:04:19;;;;;;;6.20;2.53;;;14.80;34.40;;;;;;4954394;28;20231;-90
2024/04/08 00:06:46;;;;;;;5.95;2.50;;;14.80;35.70;;;;;;4968745;28;20693;-89
2024/04/08 00:09:12;;;;;;;7.30;2.60;;;14.80;35.60;;;;;;4974180;28;20654;-89
2024/04/08 00:11:41;;;;;;;11.43;2.55;;;14.80;35.20;;;;;;4974046;28;20218;-89
2024/04/08 00:14:07;;;;;;;5.65;2.20;;;14.80;36.80;;;;;;4973143;28;20201;-89
2024/04/08 00:16:33;;;;;;;9.18;2.30;;;14.80;36.10;;;;;;4977261;28;20211;-89
2024/04/08 00:19:00;;;;;;;9.68;2.72;;;14.80;35.60;;;;;;4974239;28;20597;-89
2024/04/08 00:21:27;;;;;;;8.77;2.80;;;14.80;32.60;;;;;;4971398;28;20211;-89
2024/04/08 00:23:52;;;;;;;14.73;2.67;;;14.80;35.10;;;;;;4941362;28;20658;-89
2024/04/08 00:26:19;;;;;;;10.38;2.55;;;14.70;34.70;;;;;;4943987;28;20227;-90
2024/04/08 00:28:46;;;;;;;8.13;2.30;;;14.70;34.50;;;;;;4966855;28;20208;-89
2024/04/08 00:31:13;;;;;;;6.35;2.60;;;14.60;34.60;;;;;;4950033;28;20204;-89
2024/04/08 00:33:39;;;;;;;6.90;2.50;;;14.60;35.10;;;;;;4975001;28;20670;-89
2024/04/08 00:36:07;;;;;;;7.85;2.60;;;14.60;33.50;;;;;;4975278;28;20201;-89
2024/04/08 00:38:33;;;;;;;8.02;2.33;;;14.60;35.10;;;;;;4976872;28;20204;-89
2024/04/08 00:41:02;;;;;;;9.68;2.53;;;14.50;35.20;;;;;;4955784;28;20280;-89
2024/04/08 00:43:29;;;;;;;7.28;2.40;;;14.50;35.40;;;;;;4940546;28;20643;-89
2024/04/08 00:45:57;;;;;;;13.93;2.85;;;14.50;35.80;;;;;;4972422;28;20200;-89
2024/04/08 00:48:23;;;;;;;6.68;2.30;;;14.40;35.10;;;;;;4958639;28;20574;-89
2024/04/08 00:50:52;;;;;;;5.07;2.42;;;14.40;35.20;;;;;;4973906;28;20207;-89
2024/04/08 00:53:19;;;;;;;11.27;2.58;;;14.40;37.00;;;;;;4942787;28;20281;-89
2024/04/08 00:55:48;;;;;;;7.10;2.72;;;14.50;37.40;;;;;;4976598;28;20227;-89
2024/04/08 00:58:16;;;;;;;10.90;2.95;;;14.50;38.10;;;;;;4972897;28;20568;-89
2024/04/08 01:00:42;;;;;;;8.73;3.45;;;14.50;38.70;;;;;;4957655;28;20200;-88
2024/04/08 01:03:10;;;;;;;6.32;2.90;;;14.40;38.20;;;;;;4957085;28;20196;-89
2024/04/08 01:05:38;;;;;;;7.90;2.60;;;14.40;38.40;;;;;;4971833;28;20208;-89
2024/04/08 01:08:04;;;;;;;9.07;2.65;;;14.30;37.80;;;;;;4968143;28;20220;-89
2024/04/08 01:10:31;;;;;;;9.88;2.72;;;14.20;37.00;;;;;;4957788;28;20295;-89
2024/04/08 01:12:57;;;;;;;5.22;2.15;;;14.20;38.20;;;;;;4972871;28;20297;-89
2024/04/08 01:15:24;;;;;;;8.88;2.53;;;14.10;38.00;;;;;;4970438;28;20209;-89
2024/04/08 01:17:50;;;;;;;8.02;2.38;;;14.10;38.10;;;;;;4975767;28;20211;-89
2024/04/08 01:20:20;;;;;;;10.52;2.42;;;14.10;39.60;;;;;;4969338;28;20197;-89
2024/04/08 01:22:48;;;;;;;7.28;2.25;;;14.10;38.60;;;;;;4974081;28;20208;-89
2024/04/08 01:25:16;;;;;;;7.85;2.40;;;14.10;38.60;;;;;;4956029;28;20674;-89
2024/04/08 01:27:42;;;;;;;7.22;2.42;;;14.10;40.00;;;;;;4939185;28;20228;-89
2024/04/08 01:30:10;;;;;;;7.15;2.35;;;14.10;39.30;;;;;;4972637;28;20279;-89
2024/04/08 01:32:35;;;;;;;4.85;2.35;;;14.10;39.00;;;;;;4955453;28;20205;-89
2024/04/08 01:35:03;;;;;;;7.00;2.03;;;14.10;39.00;;;;;;4959624;28;21027;-89
2024/04/08 01:37:29;;;;;;;6.78;2.50;;;14.00;38.00;;;;;;4971573;28;20291;-89
2024/04/08 01:39:56;;;;;;;9.15;2.90;;;14.00;38.10;;;;;;4970385;28;20741;-89
2024/04/08 01:42:23;;;;;;;7.90;2.28;;;14.00;38.50;;;;;;4973663;28;20204;-90
2024/04/08 01:44:50;;;;;;;9.77;2.20;;;14.00;38.30;;;;;;4977261;28;20193;-89
2024/04/08 01:47:15;;;;;;;9.27;2.20;;;14.00;37.50;;;;;;4974021;28;20224;-88
2024/04/08 01:49:42;;;;;;;6.20;2.55;;;14.00;40.50;;;;;;4971562;28;20742;-89
2024/04/08 01:52:08;;;;;;;10.30;2.70;;;13.90;38.00;;;;;;4966667;28;20204;-89
2024/04/08 01:54:35;;;;;;;12.60;2.83;;;14.00;38.70;;;;;;4973234;28;20536;-89
2024/04/08 01:57:01;;;;;;;9.32;2.50;;;13.90;36.80;;;;;;4973655;28;20211;-89
2024/04/08 01:59:29;;;;;;;7.90;2.60;;;13.90;38.10;;;;;;4973944;28;20200;-89
2024/04/08 02:01:55;;;;;;;8.65;2.05;;;13.90;39.40;;;;;;4972472;28;20201;-89
2024/04/08 02:04:22;;;;;;;10.52;2.40;;;14.00;39.10;;;;;;4967595;28;20215;-89
2024/04/08 02:06:47;;;;;;;8.88;2.40;;;13.90;36.90;;;;;;4951724;28;20279;-89
2024/04/08 02:09:14;;;;;;;6.18;2.40;;;14.00;36.50;;;;;;4945855;28;20537;-89
2024/04/08 02:11:40;;;;;;;11.38;2.75;;;13.90;35.90;;;;;;4977122;28;20233;-89
2024/04/08 02:14:07;;;;;;;9.75;2.60;;;13.90;36.50;;;;;;4967660;28;20581;-89
2024/04/08 02:16:35;;;;;;;8.27;2.17;;;13.90;36.80;;;;;;4972786;28;20200;-89
2024/04/08 02:19:02;;;;;;;5.25;2.08;;;13.90;36.60;;;;;;4954769;28;20193;-89
2024/04/08 02:21:28;;;;;;;12.32;2.58;;;13.90;37.20;;;;;;4969422;28;20208;-89
2024/04/08 02:23:54;;;;;;;8.55;2.45;;;13.90;38.30;;;;;;4960768;28;20200;-89
2024/04/08 02:26:20;;;;;;;9.07;2.53;;;13.90;39.30;;;;;;4970610;28;20232;-89
2024/04/08 02:28:47;;;;;;;10.65;2.50;;;13.90;36.70;;;;;;4958792;28;20949;-89
2024/04/08 02:31:13;;;;;;;5.03;2.13;;;13.90;35.80;;;;;;4968226;28;20801;-89
2024/04/08 02:33:41;;;;;;;12.13;3.13;;;14.00;37.80;;;;;;4971036;28;20211;-88
2024/04/08 02:36:07;;;;;;;8.00;2.47;;;13.90;32.70;;;;;;4969605;28;20197;-89
2024/04/08 02:38:34;;;;;;;7.40;2.47;;;14.00;35.60;;;;;;4968653;28;20208;-88
2024/04/08 02:41:01;;;;;;;9.77;2.60;;;13.90;36.80;;;;;;4969554;28;20200;-89
2024/04/08 02:43:28;;;;;;;7.10;2.80;;;13.90;36.50;;;;;;4954659;28;20267;-89
2024/04/08 02:45:54;;;;;;;8.57;2.47;;;13.90;36.10;;;;;;4973571;28;20201;-89
2024/04/08 02:48:21;;;;;;;10.07;2.70;;;13.90;37.30;;;;;;4950981;28;20320;-89
2024/04/08 02:50:48;;;;;;;7.53;2.55;;;13.90;37.70;;;;;;4965836;28;20287;-89
2024/04/08 02:53:15;;;;;;;6.40;2.33;;;13.90;36.30;;;;;;4981786;28;20200;-89
2024/04/08 02:55:41;;;;;;;14.80;2.53;;;13.90;36.70;;;;;;4952116;28;20207;-89
2024/04/08 02:58:11;;;;;;;14.20;2.63;;;13.90;37.10;;;;;;4969738;28;20201;-88
2024/04/08 03:00:38;;;;;;;8.25;2.90;;;13.90;37.10;;;;;;4967729;28;20204;-89
2024/04/08 03:03:05;;;;;;;5.07;2.30;;;13.90;37.50;;;;;;4975776;28;20203;-89
2024/04/08 03:05:31;;;;;;;11.98;2.83;;;13.80;36.10;;;;;;4978764;28;20201;-89
2024/04/08 03:07:59;;;;;;;9.43;2.78;;;13.80;37.90;;;;;;4968639;28;20217;-89
2024/04/08 03:10:25;;;;;;;12.60;2.53;;;13.80;38.30;;;;;;4973198;28;20213;-89
2024/04/08 03:12:53;;;;;;;13.77;3.03;;;13.80;37.70;;;;;;4955603;28;20207;-89
2024/04/08 03:15:19;;;;;;;11.77;2.70;;;13.80;36.90;;;;;;4952289;28;20251;-89
2024/04/08 03:17:46;;;;;;;10.65;2.40;;;13.80;39.50;;;;;;4967916;28;20213;-89
2024/04/08 03:20:11;;;;;;;10.40;2.60;;;13.80;36.90;;;;;;4969845;28;20200;-89
2024/04/08 03:22:38;;;;;;;8.90;2.63;;;13.80;37.80;;;;;;4970275;28;20204;-89
2024/04/08 03:25:06;;;;;;;9.05;3.03;;;13.70;37.80;;;;;;4940392;28;20209;-89
2024/04/08 03:27:33;;;;;;;8.93;3.20;;;13.70;37.40;;;;;;4956733;28;20229;-89
2024/04/08 03:29:59;;;;;;;12.77;3.22;;;13.70;37.40;;;;;;4969999;28;20213;-89
2024/04/08 03:32:26;;;;;;;11.20;2.65;;;13.70;37.80;;;;;;4963370;28;20207;-89
2024/04/08 03:34:52;;;;;;;8.38;2.67;;;13.80;36.70;;;;;;4952695;28;20227;-89
2024/04/08 03:37:25;;;;;;;11.35;2.35;;;13.80;35.90;;;;;;4966714;28;20650;-89
2024/04/08 03:39:51;;;;;;;7.65;2.83;;;13.80;34.40;;;;;;4970274;28;20672;-89
2024/04/08 03:42:21;;;;;;;13.05;2.60;;;13.70;35.60;;;;;;4968751;28;20196;-89
2024/04/08 03:44:48;;;;;;;10.70;2.72;;;13.70;37.90;;;;;;4975638;28;20209;-89
2024/04/08 03:47:15;;;;;;;9.57;2.45;;;13.70;37.10;;;;;;4969838;28;20587;-89
2024/04/08 03:49:41;;;;;;;14.75;2.95;;;13.70;37.40;;;;;;4975211;28;20224;-89
2024/04/08 03:52:08;;;;;;;10.45;2.63;;;13.70;35.10;;;;;;4986591;28;20830;-89
2024/04/08 03:54:34;;;;;;;10.93;2.80;;;13.70;34.80;;;;;;4974940;28;20200;-89
2024/04/08 03:57:00;;;;;;;8.27;2.42;;;13.70;37.30;;;;;;4974149;28;20208;-90
2024/04/08 03:59:28;;;;;;;9.52;3.38;;;13.70;38.80;;;;;;4970525;28;20209;-89
2024/04/08 04:01:55;;;;;;;9.38;2.42;;;13.70;38.90;;;;;;4973094;28;20192;-89
2024/04/08 04:04:21;;;;;;;9.20;2.92;;;13.70;39.30;;;;;;4971145;28;20212;-89
2024/04/08 04:06:48;;;;;;;10.60;2.78;;;13.70;37.70;;;;;;4975746;28;20228;-89
2024/04/08 04:09:14;;;;;;;12.43;2.63;;;13.70;38.30;;;;;;4974884;28;20197;-89
2024/04/08 04:11:40;;;;;;;17.85;3.00;;;13.60;38.20;;;;;;4974497;28;20215;-88
2024/04/08 04:14:06;;;;;;;18.02;2.80;;;13.70;37.80;;;;;;4956677;28;20205;-88
2024/04/08 04:16:35;;;;;;;11.45;2.60;;;13.60;37.30;;;;;;4944517;28;20216;-88
2024/04/08 04:19:01;;;;;;;13.93;3.05;;;13.70;37.60;;;;;;4970419;28;20212;-89
2024/04/08 04:21:28;;;;;;;8.13;2.58;;;13.60;36.00;;;;;;4939306;28;20209;-89
2024/04/08 04:23:53;;;;;;;11.75;2.85;;;13.60;34.20;;;;;;4962450;28;20388;-88
2024/04/08 04:26:20;;;;;;;6.82;2.95;;;13.60;33.90;;;;;;4964889;28;20847;-90
2024/04/08 04:28:46;;;;;;;11.40;3.00;;;13.70;39.30;;;;;;4951592;28;20986;-90
2024/04/08 04:31:13;;;;;;;11.52;3.33;;;13.70;37.20;;;;;;4965957;28;20204;-90
2024/04/08 04:33:40;;;;;;;10.52;3.30;;;13.70;35.50;;;;;;4962795;28;20712;-90
2024/04/08 04:36:08;;;;;;;11.32;3.60;;;13.60;39.20;;;;;;4962671;28;20205;-89
2024/04/08 04:38:33;;;;;;;10.70;3.15;;;13.70;34.50;;;;;;4966708;28;20228;-89
2024/04/08 04:41:01;;;;;;;10.00;2.90;;;14.10;27.10;;;;;;4973051;28;21225;-89
2024/04/08 04:43:28;;;;;;;10.50;3.15;;;14.20;28.30;;;;;;4968189;28;20223;-88
2024/04/08 04:45:55;;;;;;;10.82;3.15;;;14.40;27.30;;;;;;4974524;28;20201;-87
2024/04/08 04:48:21;;;;;;;13.40;3.13;;;14.50;25.60;;;;;;4970123;28;20231;-91
2024/04/08 04:50:49;;;;;;;21.02;3.60;;;14.60;27.50;;;;;;4966246;28;20201;-90
2024/04/08 04:53:15;;;;;;;17.80;3.55;;;14.60;25.00;;;;;;4964721;28;20204;-93
2024/04/08 04:55:42;;;;;;;16.13;3.67;;;14.70;25.30;;;;;;4953935;28;20215;-89
2024/04/08 04:58:08;;;;;;;18.02;3.53;;;14.80;25.30;;;;;;4966065;28;20204;-88
2024/04/08 05:00:37;;;;;;;15.25;3.78;;;14.80;24.90;;;;;;4951964;28;20212;-88
2024/04/08 05:03:03;;;;;;;13.95;3.40;;;14.80;24.70;;;;;;4961498;28;20306;-90
2024/04/08 05:05:30;;;;;;;12.73;3.65;;;14.90;25.50;;;;;;4969026;28;20255;-86
2024/04/08 05:07:57;;;;;;;12.18;3.55;;;14.90;26.60;;;;;;4976487;28;20560;-88
2024/04/08 05:10:24;;;;;;;17.90;3.60;;;14.80;27.70;;;;;;4969256;28;20223;-85
2024/04/08 05:12:50;;;;;;;9.65;3.13;;;14.70;27.60;;;;;;4968083;28;20200;-87
2024/04/08 05:15:17;;;;;;;17.60;3.55;;;14.70;29.60;;;;;;4972180;28;20205;-88
2024/04/08 05:17:43;;;;;;;10.70;3.58;;;14.70;28.00;;;;;;4972797;28;20211;-89
2024/04/08 05:20:10;;;;;;;15.55;3.53;;;14.60;30.30;;;;;;4968459;28;20629;-88
2024/04/08 05:22:39;;;;;;;12.07;3.58;;;14.70;32.00;;;;;;4971629;28;20600;-90
2024/04/08 05:25:08;;;;;;;15.23;3.40;;;14.70;32.60;;;;;;4973338;28;20204;-89
2024/04/08 05:27:34;;;;;;;15.90;4.00;;;14.70;34.40;;;;;;4963909;28;20230;-89
2024/04/08 05:30:00;;;;;;;17.63;3.75;;;14.70;36.60;;;;;;4972267;28;20204;-89
2024/04/08 05:32:26;;;;;;;16.25;3.50;;;14.80;34.10;;;;;;4970335;28;20205;-89
2024/04/08 05:34:53;;;;;;;20.75;3.83;;;14.90;33.90;;;;;;4960384;28;20232;-89
2024/04/08 05:37:19;;;;;;;19.85;4.03;;;15.00;33.30;;;;;;4954963;28;20212;-89
2024/04/08 05:39:46;;;;;;;18.05;3.60;;;15.20;33.50;;;;;;4961886;28;20211;-90
2024/04/08 05:42:13;;;;;;;12.63;3.30;;;15.20;37.00;;;;;;4973456;28;21352;-89
2024/04/08 05:44:40;;;;;;;12.00;3.72;;;15.40;36.10;;;;;;4973058;28;20200;-89
2024/04/08 05:47:06;;;;;;;16.73;3.92;;;15.50;32.60;;;;;;4952954;28;20233;-89
2024/04/08 05:49:33;;;;;;;14.07;4.55;;;15.60;33.50;;;;;;4954999;28;20287;-89
2024/04/08 05:51:59;;;;;;;16.77;4.40;;;15.60;34.10;;;;;;4971584;28;20197;-89
2024/04/08 05:54:27;;;;;;;12.90;4.13;;;15.60;35.20;;;;;;4971680;28;20215;-89
2024/04/08 05:56:53;;;;;;;11.50;4.13;;;15.70;40.20;;;;;;4978865;28;20223;-89
2024/04/08 05:59:21;;;;;;;11.50;3.42;;;15.80;38.10;;;;;;4977334;28;20420;-89
2024/04/08 06:01:46;;;;;;;12.43;3.38;;;16.10;33.30;;;;;;4968052;28;20200;-89
2024/04/08 06:04:13;;;;;;;20.60;4.00;;;16.30;30.90;;;;;;4956049;28;20695;-89
2024/04/08 06:06:39;;;;;;;21.25;4.60;;;16.40;31.20;;;;;;4956285;28;20548;-89
2024/04/08 06:09:10;;;;;;;9.25;3.17;;;16.30;35.70;;;;;;4971212;28;20285;-89
2024/04/08 06:11:36;;;;;;;12.40;3.78;;;16.50;33.60;;;;;;4973258;28;20220;-89
2024/04/08 06:14:02;;;;;;;14.50;3.83;;;16.70;30.70;;;;;;4977333;28;20578;-89
2024/04/08 06:16:30;;;;;;;18.80;4.25;;;17.00;29.60;;;;;;4954522;28;20255;-90
2024/04/08 06:18:56;;;;;;;20.27;4.18;;;17.10;31.90;;;;;;4971906;28;20201;-89
2024/04/08 06:21:23;;;;;;;15.98;4.40;;;17.20;32.90;;;;;;4971433;28;20593;-90
2024/04/08 06:23:49;;;;;;;15.02;4.50;;;17.30;29.80;;;;;;4970396;28;20742;-89
2024/04/08 06:26:17;;;;;;;14.40;3.90;;;17.50;30.00;;;;;;4963625;28;20201;-89
2024/04/08 06:28:43;;;;;;;12.75;3.97;;;17.60;27.70;;;;;;4952832;28;20229;-90
2024/04/08 06:31:10;;;;;;;16.13;4.25;;;17.90;27.50;;;;;;4967153;28;20205;-90
2024/04/08 06:33:37;;;;;;;13.73;3.45;;;18.00;27.00;;;;;;4970130;28;20703;-89
2024/04/08 06:36:05;;;;;;;16.08;4.03;;;18.30;26.70;;;;;;4977809;28;20207;-89
2024/04/08 06:38:30;;;;;;;18.05;4.22;;;18.60;25.50;;;;;;4965218;28;20207;-89
2024/04/08 06:40:57;;;;;;;17.38;4.10;;;18.90;24.00;;;;;;4958269;28;20208;-89
2024/04/08 06:43:23;;;;;;;20.80;4.38;;;19.20;23.40;;;;;;4978122;28;20254;-89
2024/04/08 06:45:56;;;;;;;19.55;4.32;;;19.40;21.80;;;;;;4941217;28;20212;-88
2024/04/08 06:48:22;;;;;;;18.38;4.88;;;19.70;20.10;;;;;;4963476;28;20271;-89
2024/04/08 06:50:51;;;;;;;22.17;4.63;;;20.00;17.20;;;;;;4936859;28;20259;-87
2024/04/08 06:53:17;;;;;;;13.05;3.97;;;20.20;17.70;;;;;;4971170;28;20201;-87
2024/04/08 06:55:44;;;;;;;21.30;4.68;;;20.50;17.70;;;;;;4974796;28;20207;-87
2024/04/08 06:58:14;;;;;;;21.85;5.10;;;20.70;17.80;;;;;;4954325;28;20200;-87
2024/04/08 07:00:41;;;;;;;28.95;5.38;;;21.00;16.80;;;;;;4973421;28;20664;-87
2024/04/08 07:03:08;;;;;;;24.92;5.20;;;21.20;13.80;;;;;;4974182;28;20196;-87
2024/04/08 07:05:50;;;;;;;16.92;5.10;;;21.40;13.40;;;;;;4968524;28;20635;-88
2024/04/08 07:08:18;;;;;;;25.73;5.00;;;21.50;13.80;;;;;;4971272;28;20307;-87
2024/04/08 07:10:45;;;;;;;23.15;5.00;;;21.80;12.20;;;;;;4969924;28;20216;-87
2024/04/08 07:13:11;;;;;;;14.90;4.78;;;22.10;12.30;;;;;;4966331;28;20866;-87
2024/04/08 07:15:38;;;;;;;27.35;5.13;;;22.50;12.60;;;;;;4983379;28;20287;-87
2024/04/08 07:18:05;;;;;;;25.45;4.93;;;22.80;12.80;;;;;;4971591;28;20206;-87
2024/04/08 07:20:34;;;;;;;18.85;4.68;;;22.90;12.10;;;;;;4960242;28;20204;-88
2024/04/08 07:22:59;;;;;;;23.70;5.07;;;23.10;10.80;;;;;;4973208;28;20207;-87
2024/04/08 07:25:28;;;;;;;18.15;4.93;;;23.20;8.80;;;;;;4970423;28;20574;-87
2024/04/08 07:27:54;;;;;;;21.48;5.10;;;23.30;9.00;;;;;;4956458;28;20729;-87
2024/04/08 07:30:21;;;;;;;19.02;5.10;;;23.30;8.10;;;;;;4970868;28;20899;-87
2024/04/08 07:32:47;;;;;;;22.35;4.78;;;23.20;9.50;;;;;;4972037;28;20200;-87
2024/04/08 07:35:19;;;;;;;17.15;4.78;;;23.20;9.20;;;;;;4953633;28;20260;-87
2024/04/08 07:37:45;;;;;;;19.63;4.93;;;23.20;9.70;;;;;;4975269;28;20207;-87
2024/04/08 07:40:12;;;;;;;24.98;4.85;;;23.20;10.00;;;;;;4970087;28;20212;-87
2024/04/08 07:42:39;;;;;;;19.65;5.20;;;23.10;9.00;;;;;;4972261;28;20217;-87
2024/04/08 07:45:06;;;;;;;20.33;4.65;;;23.10;9.00;;;;;;4973523;28;20212;-88
2024/04/08 07:47:32;;;;;;;21.98;4.93;;;23.10;7.80;;;;;;4964754;28;20232;-88
2024/04/08 07:49:59;;;;;;;22.55;4.30;;;23.00;9.10;;;;;;4954958;28;20232;-87
2024/04/08 07:52:26;;;;;;;21.55;4.53;;;23.00;7.70;;;;;;4960728;28;20215;-87
2024/04/08 07:54:53;;;;;;;15.98;4.63;;;23.10;7.40;;;;;;4971616;28;20196;-87
2024/04/08 07:57:19;;;;;;;21.13;4.60;;;23.30;7.40;;;;;;4951339;28;20225;-87
2024/04/08 07:59:48;;;;;;;23.50;4.75;;;23.60;6.40;;;;;;4970563;28;20197;-87
2024/04/08 08:02:14;;;;;;;24.70;4.93;;;23.70;4.70;;;;;;4966743;28;20535;-87
2024/04/08 08:04:41;;;;;;;20.52;4.90;;;23.80;4.60;;;;;;4951370;28;20208;-87
2024/04/08 08:07:06;;;;;;;21.17;4.93;;;23.90;5.00;;;;;;4970928;28;20204;-87
2024/04/08 08:09:33;;;;;;;18.95;4.50;;;24.00;5.40;;;;;;4970430;28;20710;-87
2024/04/08 08:12:01;;;;;;;27.83;5.10;;;24.10;5.10;;;;;;4965873;28;20208;-86
2024/04/08 08:14:27;;;;;;;20.85;5.20;;;24.10;4.10;;;;;;4955745;28;20654;-87
2024/04/08 08:16:55;;;;;;;24.63;4.97;;;24.10;5.30;;;;;;4978120;28;20208;-87
2024/04/08 08:19:22;;;;;;;18.95;4.57;;;24.10;4.90;;;;;;4975372;28;20207;-86
2024/04/08 08:21:50;;;;;;;17.98;4.53;;;24.20;5.20;;;;;;4973988;28;20200;-87
2024/04/08 08:24:18;;;;;;;22.98;4.70;;;24.10;5.80;;;;;;4954368;28;20235;-86
2024/04/08 08:26:45;;;;;;;26.13;5.20;;;24.00;5.70;;;;;;4971925;28;20663;-87
2024/04/08 08:29:11;;;;;;;20.00;4.88;;;24.00;4.60;;;;;;4971849;28;20232;-87
2024/04/08 08:31:39;;;;;;;21.08;4.78;;;24.00;4.70;;;;;;4953906;28;20259;-87
2024/04/08 08:34:07;;;;;;;23.02;4.45;;;24.10;5.50;;;;;;4973969;28;20677;-86
2024/04/08 08:36:33;;;;;;;14.43;4.18;;;24.40;5.70;;;;;;4972743;28;20204;-85
2024/04/08 08:39:00;;;;;;;22.20;5.25;;;24.80;6.10;;;;;;4974666;28;20200;-84
2024/04/08 08:41:31;;;;;;;17.15;4.68;;;25.40;4.70;;;;;;4975213;28;20258;-84
2024/04/08 08:44:01;;;;;;;16.85;4.35;;;25.80;3.00;;;;;;4968812;28;20677;-86
2024/04/08 08:46:29;;;;;;;20.65;5.07;;;26.20;2.00;;;;;;4978360;28;20293;-86
2024/04/08 08:48:59;;;;;;;16.90;4.35;;;26.50;3.40;;;;;;4941971;28;20228;-87
2024/04/08 08:51:28;;;;;;;28.90;5.38;;;26.60;2.40;;;;;;4975025;28;20207;-87
2024/04/08 08:53:54;;;;;;;23.75;5.28;;;26.30;1.00;;;;;;4976440;28;20684;-87
2024/04/08 08:56:21;;;;;;;32.70;6.20;;;26.70;1.00;;;;;;4961413;28;20216;-87
2024/04/08 08:58:52;;;;;;;32.75;5.60;;;27.00;1.00;;;;;;4975544;28;20290;-87
2024/04/08 09:01:20;;;;;;;25.85;5.00;;;27.30;1.00;;;;;;4971024;28;20197;-87
2024/04/08 09:03:47;;;;;;;32.70;5.35;;;27.60;1.00;;;;;;4972801;28;20201;-87
2024/04/08 09:06:14;;;;;;;20.75;5.38;;;28.10;1.00;;;;;;4974735;28;20657;-86
2024/04/08 09:08:43;;;;;;;31.50;6.07;;;28.40;1.00;;;;;;4976235;28;20259;-87
2024/04/08 09:11:10;;;;;;;25.10;5.53;;;28.90;1.00;;;;;;4969566;28;20570;-87
2024/04/08 09:13:36;;;;;;;20.45;5.03;;;30.00;1.00;;;;;;4968460;28;20196;-87
2024/04/08 09:16:03;;;;;;;27.52;5.60;;;30.70;1.00;;;;;;4962924;28;20259;-87
2024/04/08 09:18:29;;;;;;;25.50;5.68;;;31.20;1.00;;;;;;4974624;28;20207;-87
2024/04/08 09:20:58;;;;;;;27.40;5.93;;;31.90;1.00;;;;;;4958405;28;20201;-87
2024/04/08 09:23:25;;;;;;;25.80;6.03;;;31.60;1.00;;;;;;4963107;28;20197;-89
2024/04/08 09:25:53;;;;;;;28.60;6.22;;;31.50;1.00;;;;;;4973157;28;20266;-89
2024/04/08 09:28:19;;;;;;;33.38;7.35;;;31.50;1.00;;;;;;4973183;28;20231;-89
2024/04/08 09:30:46;;;;;;;30.33;6.88;;;31.80;1.00;;;;;;4972655;28;20227;-90
2024/04/08 09:33:13;;;;;;;34.28;7.40;;;32.10;1.00;;;;;;4971148;28;20200;-89
2024/04/08 09:35:42;;;;;;;22.27;6.53;;;32.00;1.00;;;;;;4957520;28;20608;-90
2024/04/08 09:38:09;;;;;;;20.10;6.05;;;32.00;1.00;;;;;;4975197;28;20200;-90
2024/04/08 09:40:37;;;;;;;34.80;7.43;;;32.10;1.00;;;;;;4972141;28;20208;-90
2024/04/08 09:43:05;;;;;;;25.23;7.38;;;31.80;1.00;;;;;;4962885;28;20282;-90
2024/04/08 09:45:35;;;;;;;43.45;7.75;;;31.90;1.00;;;;;;4970035;28;20215;-90
2024/04/08 09:48:01;;;;;;;30.17;7.22;;;32.10;1.00;;;;;;4972623;28;20255;-90
2024/04/08 09:50:29;;;;;;;29.80;7.18;;;31.90;1.00;;;;;;4956617;28;20227;-90
2024/04/08 09:52:55;;;;;;;35.17;7.97;;;32.00;1.00;;;;;;4977225;28;20204;-90
2024/04/08 09:55:28;;;;;;;37.63;7.80;;;32.30;1.00;;;;;;4980871;28;20620;-90
2024/04/08 09:57:57;;;;;;;34.60;7.75;;;32.50;1.00;;;;;;4970894;28;20232;-90
2024/04/08 10:00:31;;;;;;;33.08;7.47;;;31.90;1.00;;;;;;4974571;28;20200;-90
2024/04/08 10:03:03;;;;;;;25.67;6.80;;;31.90;1.00;;;;;;4957326;28;20259;-90
2024/04/08 10:05:30;;;;;;;35.72;7.82;;;32.20;1.00;;;;;;4982136;28;20208;-90
2024/04/08 10:07:57;;;;;;;39.65;8.25;;;32.40;1.00;;;;;;4961551;28;20208;-90
2024/04/08 10:10:24;;;;;;;32.95;7.90;;;32.00;1.00;;;;;;4972912;28;20208;-90
2024/04/08 10:12:50;;;;;;;26.83;8.20;;;32.10;1.00;;;;;;4950763;28;20204;-90
2024/04/08 10:15:18;;;;;;;32.45;7.88;;;33.30;1.00;;;;;;4981627;28;20238;-90
2024/04/08 10:17:46;;;;;;;29.50;7.60;;;33.30;1.00;;;;;;4971065;28;20207;-90
2024/04/08 10:20:16;;;;;;;30.77;7.57;;;33.70;1.00;;;;;;4967387;28;20196;-91
2024/04/08 10:22:41;;;;;;;38.45;8.52;;;33.90;1.00;;;;;;4971327;28;20200;-90
2024/04/08 10:25:37;;;;;;;30.05;7.45;;;33.70;1.00;;;;;;4965525;28;20871;-90
2024/04/08 10:28:04;;;;;;;31.23;7.78;;;33.80;1.00;;;;;;4971781;28;20227;-89
2024/04/08 10:30:33;;;;;;;33.35;7.90;;;33.50;1.00;;;;;;4973735;28;20231;-90
2024/04/08 10:33:00;;;;;;;37.20;8.00;;;33.70;1.00;;;;;;4955984;28;20209;-90
2024/04/08 10:35:27;;;;;;;31.92;7.68;;;33.50;1.00;;;;;;4939173;28;20204;-90
2024/04/08 10:37:53;;;;;;;39.90;9.07;;;33.70;1.00;;;;;;4940792;28;20262;-90
2024/04/08 10:40:21;;;;;;;45.55;9.07;;;32.60;1.00;;;;;;4972055;28;20204;-89
2024/04/08 10:42:48;;;;;;;55.25;9.32;;;32.40;1.00;;;;;;4962268;28;20207;-87
2024/04/08 10:45:14;;;;;;;34.08;8.65;;;30.70;1.00;;;;;;4971485;28;20650;-87
2024/04/08 10:47:40;;;;;;;34.53;8.48;;;30.50;1.00;;;;;;4969852;28;20588;-87
2024/04/08 10:50:10;;;;;;;43.80;8.45;;;30.10;1.00;;;;;;4956006;28;20255;-87
2024/04/08 10:52:39;;;;;;;39.88;8.52;;;30.30;1.00;;;;;;4949733;28;20204;-87
2024/04/08 10:55:06;;;;;;;43.08;8.65;;;30.20;1.00;;;;;;4971833;28;20204;-87
2024/04/08 10:57:32;;;;;;;51.40;9.15;;;30.40;1.00;;;;;;4935252;28;20662;-87
2024/04/08 10:59:59;;;;;;;45.35;8.65;;;30.40;1.00;;;;;;4969018;28;20204;-87
2024/04/08 11:02:25;;;;;;;32.90;8.15;;;30.40;1.00;;;;;;4954546;28;20581;-87
2024/04/08 11:04:53;;;;;;;51.05;8.98;;;30.60;1.00;;;;;;4970364;28;20200;-87
2024/04/08 11:07:20;;;;;;;38.35;8.27;;;30.70;1.00;;;;;;4972460;28;20211;-88
2024/04/08 11:09:47;;;;;;;52.35;9.30;;;30.90;1.00;;;;;;4965828;28;20225;-87
2024/04/08 11:12:13;;;;;;;36.45;7.82;;;30.70;1.00;;;;;;4972288;28;20203;-87
2024/04/08 11:14:41;;;;;;;46.25;8.75;;;30.80;1.00;;;;;;4956443;28;20574;-87
2024/04/08 11:17:08;;;;;;;35.58;8.43;;;30.80;1.00;;;;;;4975256;28;20224;-86
2024/04/08 11:19:37;;;;;;;55.78;9.52;;;30.80;1.00;;;;;;4970037;28;20204;-87
2024/04/08 11:22:06;;;;;;;44.60;9.27;;;30.50;1.00;;;;;;4965117;28;20200;-87
2024/04/08 11:24:41;;;;;;;36.10;7.97;;;30.20;1.00;;;;;;4955944;28;20212;-86
2024/04/08 11:27:08;;;;;;;36.55;7.75;;;30.40;1.00;;;;;;4963050;28;20201;-87
2024/04/08 11:29:34;;;;;;;37.72;7.15;;;30.60;1.00;;;;;;4968994;28;20235;-87
2024/04/08 11:32:00;;;;;;;40.47;7.88;;;30.90;1.00;;;;;;4971931;28;20207;-86
2024/04/08 11:34:27;;;;;;;39.83;8.23;;;30.80;1.00;;;;;;4956394;28;20212;-86
2024/04/08 11:36:54;;;;;;;46.35;7.45;;;30.60;1.00;;;;;;4973448;28;20207;-87
2024/04/08 11:39:20;;;;;;;31.15;6.82;;;30.70;1.00;;;;;;4954570;28;20207;-87
2024/04/08 11:41:48;;;;;;;39.25;6.68;;;30.70;1.00;;;;;;4972000;28;20210;-87
2024/04/08 11:44:14;;;;;;;29.77;6.10;;;30.70;1.00;;;;;;4970887;28;20635;-86
2024/04/08 11:46:40;;;;;;;35.60;7.30;;;30.50;1.00;;;;;;4971488;28;20200;-86
2024/04/08 11:49:07;;;;;;;32.53;6.68;;;30.50;1.00;;;;;;4975806;28;20231;-88
2024/04/08 11:51:33;;;;;;;33.22;6.53;;;30.30;1.00;;;;;;4969172;28;20208;-87
2024/04/08 11:54:00;;;;;;;36.00;6.95;;;30.30;1.00;;;;;;4969453;28;20615;-86
2024/04/08 11:56:26;;;;;;;34.80;7.20;;;30.30;1.00;;;;;;4964295;28;20196;-86
2024/04/08 11:58:54;;;;;;;27.23;6.30;;;30.30;1.00;;;;;;4953832;28;20691;-88
2024/04/08 12:01:20;;;;;;;27.88;5.97;;;30.30;1.00;;;;;;4963085;28;20209;-87
2024/04/08 12:03:47;;;;;;;35.80;6.32;;;30.20;1.00;;;;;;4971942;28;20280;-87
2024/04/08 12:06:15;;;;;;;27.77;6.65;;;30.10;1.00;;;;;;4984029;28;20206;-88
2024/04/08 12:08:42;;;;;;;48.65;7.38;;;30.00;1.00;;;;;;4971531;28;20266;-88
2024/04/08 12:11:10;;;;;;;39.63;6.95;;;29.70;1.00;;;;;;4977302;28;20212;-88
2024/04/08 12:13:37;;;;;;;44.63;8.00;;;29.60;1.00;;;;;;4975932;28;20650;-88
2024/04/08 12:16:05;;;;;;;31.20;7.10;;;29.50;1.00;;;;;;4975182;28;20199;-87
2024/04/08 12:18:32;;;;;;;43.38;7.10;;;29.50;1.00;;;;;;4961013;28;20199;-88
2024/04/08 12:20:59;;;;;;;38.08;7.35;;;29.50;1.00;;;;;;4962731;28;20200;-86
2024/04/08 12:23:26;;;;;;;29.10;5.90;;;29.50;1.00;;;;;;4975897;28;20200;-86
2024/04/08 12:25:52;;;;;;;37.67;7.07;;;29.50;1.00;;;;;;4971532;28;20689;-86
2024/04/08 12:28:19;;;;;;;33.20;6.15;;;29.50;1.00;;;;;;4972230;28;20224;-86
2024/04/08 12:30:47;;;;;;;35.42;6.68;;;29.60;1.00;;;;;;4965557;28;20201;-86
2024/04/08 12:33:15;;;;;;;42.97;7.65;;;29.50;1.00;;;;;;4969268;28;20204;-84
2024/04/08 12:35:41;;;;;;;36.78;6.60;;;29.30;1.00;;;;;;4971848;28;20670;-85
2024/04/08 12:38:08;;;;;;;40.00;6.70;;;29.30;1.00;;;;;;4974357;28;20207;-84
2024/04/08 12:40:34;;;;;;;34.58;7.47;;;29.30;1.00;;;;;;4973431;28;20225;-85
2024/04/08 12:43:02;;;;;;;32.47;7.35;;;29.40;1.00;;;;;;4975519;28;20661;-84